createdAt,value
2016-10-07T00:02:42.399Z,85.08
2016-10-07T00:07:42.346Z,85.28
2016-10-07T00:12:42.297Z,85.08
2016-10-07T00:17:42.249Z,85.47
2016-10-07T00:22:41.898Z,85.37
2016-10-07T00:27:42.140Z,85.28
2016-10-07T00:32:42.088Z,85.37
2016-10-07T00:37:42.036Z,85.47
2016-10-07T00:42:41.984Z,85.28
2016-10-07T00:47:41.936Z,85.37
2016-10-07T00:52:41.881Z,85.18
2016-10-07T00:57:41.838Z,85.28
2016-10-07T01:02:41.790Z,84.8
2016-10-07T01:07:41.730Z,84.6
2016-10-07T01:12:41.374Z,84.41
2016-10-07T01:17:41.319Z,84.6
2016-10-07T01:22:41.571Z,84.6
2016-10-07T01:27:41.519Z,84.27
2016-10-07T01:32:41.465Z,84.37
2016-10-07T01:37:41.112Z,84.47
2016-10-07T01:42:41.362Z,84.18
2016-10-07T01:47:41.312Z,84.18
2016-10-07T01:52:41.259Z,84.37
2016-10-07T01:57:41.205Z,84.18
2016-10-07T02:02:41.155Z,84.37
2016-10-07T02:07:41.101Z,84.37
2016-10-07T02:12:41.048Z,84.27
2016-10-07T02:17:40.691Z,84.47
2016-10-07T02:22:40.943Z,84.37
2016-10-07T02:27:40.896Z,84.27
2016-10-07T02:32:40.854Z,84.37
2016-10-07T02:37:40.790Z,84.18
2016-10-07T02:42:40.738Z,84.37
2016-10-07T02:47:40.683Z,84.37
2016-10-07T02:52:40.631Z,84.47
2016-10-07T02:57:40.581Z,84.37
2016-10-07T03:02:40.523Z,84.95
2016-10-07T03:07:40.477Z,84.75
2016-10-07T03:12:40.120Z,84.66
2016-10-07T03:17:40.367Z,84.56
2016-10-07T03:22:40.317Z,84.37
2016-10-07T03:27:40.263Z,84.56
2016-10-07T03:32:40.213Z,84.27
2016-10-07T03:37:40.156Z,84.27
2016-10-07T03:42:40.110Z,84.56
2016-10-07T03:47:40.056Z,84.47
2016-10-07T03:52:40.000Z,84.08
2016-10-07T03:57:39.946Z,84.66
2016-10-07T04:02:39.892Z,84.27
2016-10-07T04:07:39.839Z,84.37
2016-10-07T04:12:39.794Z,84.66
2016-10-07T04:17:39.732Z,84.27
2016-10-07T04:22:39.683Z,84.27
2016-10-07T04:27:39.629Z,84.56
2016-10-07T04:32:39.569Z,84.66
2016-10-07T04:37:39.518Z,84.75
2016-10-07T04:42:39.465Z,84.47
2016-10-07T04:47:39.414Z,84.66
2016-10-07T04:52:39.356Z,84.75
2016-10-07T04:57:39.304Z,84.75
2016-10-07T05:02:39.258Z,84.37
2016-10-07T05:07:39.210Z,84.56
2016-10-07T05:12:39.147Z,84.85
2016-10-07T05:17:39.100Z,84.75
2016-10-07T05:22:39.059Z,84.37
2016-10-07T05:27:38.986Z,84.08
2016-10-07T05:32:38.936Z,84.37
2016-10-07T05:37:38.882Z,84.75
2016-10-07T05:42:38.828Z,84.75
2016-10-07T05:47:38.771Z,84.37
2016-10-07T05:52:38.722Z,84.75
2016-10-07T05:57:38.671Z,84.85
2016-10-07T06:02:38.617Z,84.37
2016-10-07T06:07:38.267Z,84.56
2016-10-07T06:12:38.508Z,84.27
2016-10-07T06:17:38.452Z,84.75
2016-10-07T06:22:38.094Z,84.75
2016-10-07T06:27:38.344Z,84.75
2016-10-07T06:32:38.298Z,84.75
2016-10-07T06:37:38.234Z,84.47
2016-10-07T06:42:38.178Z,84.37
2016-10-07T06:47:38.126Z,84.56
2016-10-07T06:52:38.072Z,84.37
2016-10-07T06:57:38.016Z,85.14
2016-10-07T07:02:37.976Z,84.75
2016-10-07T07:07:37.912Z,84.56
2016-10-07T07:12:37.856Z,84.47
2016-10-07T07:17:37.803Z,84.71
2016-10-07T07:22:37.746Z,85.04
2016-10-07T07:27:37.692Z,84.66
2016-10-07T07:32:37.337Z,84.37
2016-10-07T07:37:37.284Z,84.23
2016-10-07T07:42:37.232Z,84.75
2016-10-07T07:47:37.478Z,84.56
2016-10-07T07:52:37.422Z,84.27
2016-10-07T07:57:37.063Z,84.27
2016-10-07T08:02:37.007Z,84.37
2016-10-07T08:07:37.261Z,83.98
2016-10-07T08:12:37.221Z,84.37
2016-10-07T08:17:37.153Z,84.66
2016-10-07T08:22:37.097Z,84.95
2016-10-07T08:27:36.739Z,85.71
2016-10-07T08:32:36.991Z,85.42
2016-10-07T08:37:36.943Z,85.62
2016-10-07T08:42:36.886Z,85.04
2016-10-07T08:47:36.830Z,85.52
2016-10-07T08:52:36.473Z,85.52
2016-10-07T08:57:36.723Z,85.14
2016-10-07T09:02:36.369Z,85.71
2016-10-07T09:07:36.633Z,85.33
2016-10-07T09:12:36.572Z,85.14
2016-10-07T09:17:36.542Z,85.33
2016-10-07T09:22:36.463Z,85.24
2016-10-07T09:27:36.411Z,85.14
2016-10-07T09:32:36.354Z,85.04
2016-10-07T09:37:36.309Z,85.33
2016-10-07T09:42:36.261Z,84.95
2016-10-07T09:47:36.203Z,84.95
2016-10-07T09:52:36.138Z,85.24
2016-10-07T09:57:36.094Z,85.24
2016-10-07T10:02:36.032Z,84.95
2016-10-07T10:07:35.979Z,85.04
2016-10-07T10:12:35.923Z,85.33
2016-10-07T10:17:35.566Z,85.04
2016-10-07T10:22:35.820Z,85.14
2016-10-07T10:27:35.764Z,85.42
2016-10-07T10:32:35.714Z,85.52
2016-10-07T10:37:35.655Z,85.33
2016-10-07T10:42:35.301Z,85.14
2016-10-07T10:47:35.551Z,85.42
2016-10-07T10:52:35.500Z,85.33
2016-10-07T10:57:35.135Z,85.14
2016-10-07T11:02:35.392Z,85.33
2016-10-07T11:07:35.334Z,84.95
2016-10-07T11:12:35.282Z,85.14
2016-10-07T11:17:35.226Z,85.62
2016-10-07T11:22:35.174Z,85.71
2016-10-07T11:27:35.120Z,86
2016-10-07T11:32:35.080Z,85.91
2016-10-07T11:37:35.018Z,85.62
2016-10-07T11:42:34.658Z,85.33
2016-10-07T11:47:34.910Z,85.71
2016-10-07T11:52:34.870Z,85.24
2016-10-07T11:57:34.807Z,85.14
2016-10-07T12:02:34.755Z,84.95
2016-10-07T12:07:34.700Z,85.33
2016-10-07T12:12:34.341Z,84.89
2016-10-07T12:17:34.301Z,84.7
2016-10-07T12:22:34.545Z,84.41
2016-10-07T12:27:34.483Z,84.8
2016-10-07T12:32:34.129Z,83.93
2016-10-07T12:37:34.381Z,81.48
2016-10-07T12:42:34.341Z,83.73
2016-10-07T12:47:34.276Z,84.17
2016-10-07T12:52:34.220Z,83.97
2016-10-07T12:57:34.162Z,84.45
2016-10-07T13:02:33.808Z,84.12
2016-10-07T13:07:33.758Z,84.6
2016-10-07T13:12:34.005Z,84.89
2016-10-07T13:17:33.647Z,84.95
2016-10-07T13:22:33.895Z,84.6
2016-10-07T13:27:33.842Z,84.75
2016-10-07T13:32:33.791Z,85.08
2016-10-07T13:37:33.737Z,84.95
2016-10-07T13:42:33.679Z,84.51
2016-10-07T13:47:33.625Z,84.41
2016-10-07T13:52:33.268Z,83.74
2016-10-07T13:57:33.517Z,83.59
2016-10-07T14:02:33.459Z,83.78
2016-10-07T14:07:33.409Z,83.87
2016-10-07T14:12:33.047Z,83.74
2016-10-07T14:17:33.303Z,83.54
2016-10-07T14:22:33.249Z,84.41
2016-10-07T14:27:33.195Z,84.12
2016-10-07T14:32:33.141Z,84.12
2016-10-07T14:37:33.089Z,84.03
2016-10-07T14:42:33.037Z,84.41
2016-10-07T14:47:32.985Z,84.12
2016-10-07T14:52:32.931Z,84.56
2016-10-07T14:57:32.879Z,84.47
2016-10-07T15:02:32.829Z,84.47
2016-10-07T15:07:32.781Z,84.37
2016-10-07T15:12:32.421Z,84.47
2016-10-07T15:17:32.687Z,84.27
2016-10-07T15:22:32.319Z,84.08
2016-10-07T15:27:32.279Z,85.04
2016-10-07T15:32:32.523Z,85.24
2016-10-07T15:37:32.469Z,84.66
2016-10-07T15:42:32.414Z,83.93
2016-10-07T15:47:32.056Z,83.07
2016-10-07T15:52:32.316Z,83.01
2016-10-07T15:57:32.256Z,82.92
2016-10-07T16:02:32.200Z,83.15
2016-10-07T16:07:32.164Z,83.34
2016-10-07T16:12:31.800Z,83.15
2016-10-07T16:17:32.052Z,83.15
2016-10-07T16:22:32.005Z,83.25
2016-10-07T16:27:31.954Z,83.15
2016-10-07T16:32:31.599Z,83.34
2016-10-07T16:37:31.855Z,83.25
2016-10-07T16:42:31.805Z,83.25
2016-10-07T16:47:31.755Z,83.53
2016-10-07T16:52:31.709Z,84.01
2016-10-07T16:57:31.663Z,83.87
2016-10-07T17:02:31.611Z,83.87
2016-10-07T17:07:31.567Z,83.59
2016-10-07T17:12:31.515Z,84.07
2016-10-07T17:17:31.162Z,84.07
2016-10-07T17:22:31.416Z,84.17
2016-10-07T17:27:31.380Z,84.55
2016-10-07T17:32:31.014Z,84.45
2016-10-07T17:37:30.960Z,83.97
2016-10-07T17:42:30.914Z,84.07
2016-10-07T17:47:31.166Z,84.26
2016-10-07T17:52:30.816Z,84.17
2016-10-07T17:57:31.071Z,83.69
2016-10-07T18:02:31.021Z,83.59
2016-10-07T18:07:30.963Z,83.59
2016-10-07T18:12:30.917Z,83.59
2016-10-07T18:17:30.875Z,83.87
2016-10-07T18:22:30.819Z,83.97
2016-10-07T18:27:30.767Z,84.17
2016-10-07T18:32:30.715Z,84.26
2016-10-07T18:37:30.359Z,84.17
2016-10-07T18:42:30.620Z,84.17
2016-10-07T18:47:30.564Z,84.55
2016-10-07T18:52:30.508Z,84.45
2016-10-07T18:57:30.461Z,84.07
2016-10-07T19:02:30.411Z,84.07
2016-10-07T19:07:30.357Z,84.07
2016-10-07T19:12:30.307Z,84.17
2016-10-07T19:17:30.255Z,84.17
2016-10-07T19:22:29.901Z,84.07
2016-10-07T19:27:29.847Z,83.97
2016-10-07T19:32:30.167Z,84.07
2016-10-07T19:37:30.053Z,84.17
2016-10-07T19:42:29.999Z,84.17
2016-10-07T19:47:29.949Z,84.55
2016-10-07T19:52:29.899Z,84.17
2016-10-07T19:57:29.899Z,84.17
2016-10-07T20:02:29.804Z,84.26
2016-10-07T20:07:29.444Z,84.07
2016-10-07T20:12:29.700Z,84.45
2016-10-07T20:17:29.644Z,84.07
2016-10-07T20:22:29.294Z,84.64
2016-10-07T20:27:29.552Z,84.55
2016-10-07T20:32:29.500Z,84.36
2016-10-07T20:37:29.148Z,84.36
2016-10-07T20:42:29.403Z,84.45
2016-10-07T20:47:29.358Z,84.36
2016-10-07T20:52:29.305Z,85.03
2016-10-07T20:57:29.254Z,84.84
2016-10-07T21:02:28.901Z,84.45
2016-10-07T21:07:29.166Z,84.45
2016-10-07T21:12:29.119Z,84.55
2016-10-07T21:17:28.751Z,84.74
2016-10-07T21:22:28.703Z,84.45
2016-10-07T21:27:28.961Z,84.26
2016-10-07T21:32:28.605Z,84.21
2016-10-07T21:37:28.873Z,84.64
2016-10-07T21:42:28.822Z,85.13
2016-10-07T21:47:28.768Z,84.84
2016-10-07T21:52:28.408Z,85.13
2016-10-07T21:57:28.660Z,85.41
2016-10-07T22:02:28.310Z,85.41
2016-10-07T22:07:28.640Z,85.51
2016-10-07T22:12:28.516Z,85.22
2016-10-07T22:17:28.463Z,85.8
2016-10-07T22:22:28.108Z,85.32
2016-10-07T22:27:28.367Z,85.89
2016-10-07T22:32:28.317Z,85.85
2016-10-07T22:37:27.958Z,85.95
2016-10-07T22:42:28.215Z,85.57
2016-10-07T22:47:28.164Z,85.95
2016-10-07T22:52:28.111Z,85.75
2016-10-07T22:57:28.060Z,85.47
2016-10-07T23:02:28.013Z,85.95
2016-10-07T23:07:27.959Z,85.95
2016-10-07T23:12:27.918Z,85.85
2016-10-07T23:17:27.857Z,85.18
2016-10-07T23:22:27.804Z,85.66
2016-10-07T23:27:27.754Z,85.66
2016-10-07T23:32:27.706Z,85.28
2016-10-07T23:37:27.344Z,85.85
2016-10-07T23:42:27.598Z,85.57
2016-10-07T23:47:27.543Z,85.66
2016-10-07T23:52:27.490Z,85.57
2016-10-07T23:57:27.444Z,85.47
